Kit Carson, Colorado
Current Conditions -  °F | °C
As of 2:53 PM on Friday 24 Oct 2014 (Local Time) from KITR Reporting Station
Clear Clear  
Wind Chill: 85°   Ceiling: Unl
Heat Index: 85°   Visibility: 10mi
Dew Point: 21°   Wind: 5mph
Humidity: 10%   Direction: 280°W
Pressure: 30.09"   Gusts: NA
Location:  38.76°N, 102.79°W
Report Text: KITR 242053Z AUTO 28004KT 10SM CLR 29/M06 A3009 RMK AO2 SLP141 T02941061 56013
Loading
Personal Weather Stations






























Interactive Weather Map
Tropical Storm Tracking
New forecast layout! Learn more

10-Day Weather Forecast

Advertisements
Track Severe Weather on mobile